createdAt,value
2019-03-19T00:02:20.644Z,100150.34
2019-03-19T00:04:48.878Z,100150.34
2019-03-19T00:07:17.142Z,100150.97
2019-03-19T00:09:45.366Z,100150.84
2019-03-19T00:12:13.591Z,100148.04
2019-03-19T00:14:41.842Z,100149.56
2019-03-19T00:17:10.305Z,100157.59
2019-03-19T00:19:38.778Z,100158.98
2019-03-19T00:22:07.233Z,100167.87
2019-03-19T00:24:35.480Z,100161.77
2019-03-19T00:27:03.959Z,100161.12
2019-03-19T00:29:32.422Z,100163.91
2019-03-19T00:32:00.662Z,100167.08
2019-03-19T00:34:28.907Z,100166.95
2019-03-19T00:36:57.383Z,100149.95
2019-03-19T00:39:25.691Z,100171.52
2019-03-19T00:41:53.869Z,100161.10
2019-03-19T00:44:22.115Z,100167.08
2019-03-19T00:46:50.357Z,100166.44
2019-03-19T00:49:18.596Z,100170.88
2019-03-19T00:51:46.827Z,100164.27
2019-03-19T00:54:15.074Z,100171.36
2019-03-19T00:56:43.312Z,100172.13
2019-03-19T00:59:11.798Z,100170.11
2019-03-19T01:01:40.035Z,100169.70
2019-03-19T01:04:08.509Z,100177.08
2019-03-19T01:06:36.808Z,100177.32
2019-03-19T01:09:06.787Z,100179.88
2019-03-19T01:11:35.046Z,100180.88
2019-03-19T01:14:03.296Z,100181.03
2019-03-19T01:16:31.766Z,100181.03
2019-03-19T01:18:59.994Z,100179.28
2019-03-19T01:21:28.241Z,100179.66
2019-03-19T01:23:56.706Z,100174.10
2019-03-19T01:26:25.183Z,100169.26
2019-03-19T01:28:53.414Z,100177.41
2019-03-19T01:31:21.660Z,100180.70
2019-03-19T01:33:49.896Z,100179.28
2019-03-19T01:36:18.372Z,100181.06
2019-03-19T01:38:46.660Z,100178.88
2019-03-19T01:41:15.135Z,100172.39
2019-03-19T01:43:43.367Z,100178.11
2019-03-19T01:46:11.614Z,100180.40
2019-03-19T01:48:39.842Z,100178.23
2019-03-19T01:51:08.320Z,100180.02
2019-03-19T01:53:36.548Z,100176.72
2019-03-19T01:56:05.667Z,100170.23
2019-03-19T01:58:34.144Z,100174.05
2019-03-19T02:01:02.383Z,100171.75
2019-03-19T02:06:06.294Z,100175.19
2019-03-19T02:08:34.529Z,100177.60
2019-03-19T02:11:03.086Z,100181.16
2019-03-19T02:13:31.548Z,100183.73
2019-03-19T02:15:59.783Z,100189.56
2019-03-19T02:18:28.017Z,100185.02
2019-03-19T02:20:56.278Z,100181.33
2019-03-19T02:23:24.488Z,100187.68
2019-03-19T02:25:52.897Z,100197.34
2019-03-19T02:28:21.359Z,100202.42
2019-03-19T02:30:49.609Z,100207.13
2019-03-19T02:33:17.825Z,100196.70
2019-03-19T02:35:46.068Z,100193.53
2019-03-19T02:38:14.523Z,100201.25
2019-03-19T02:40:42.998Z,100207.87
2019-03-19T02:43:11.227Z,100212.57
2019-03-19T02:45:39.690Z,100215.37
2019-03-19T02:48:08.162Z,100221.34
2019-03-19T02:50:36.609Z,100213.47
2019-03-19T02:53:04.847Z,100210.16
2019-03-19T02:55:33.081Z,100215.62
2019-03-19T02:58:01.373Z,100214.87
2019-03-19T03:00:29.830Z,100214.23
2019-03-19T03:02:58.063Z,100211.44
2019-03-19T03:05:26.300Z,100206.86
2019-03-19T03:07:54.857Z,100216.14
2019-03-19T03:10:23.374Z,100215.88
2019-03-19T03:12:51.625Z,100215.88
2019-03-19T03:15:19.855Z,100220.45
2019-03-19T03:17:48.091Z,100223.50
2019-03-19T03:20:16.795Z,100231.00
2019-03-19T03:22:45.196Z,100229.09
2019-03-19T03:25:14.415Z,100229.98
2019-03-19T03:27:42.865Z,100240.14
2019-03-19T03:30:14.201Z,100242.69
2019-03-19T03:32:42.442Z,100240.28
2019-03-19T03:35:11.263Z,100242.06
2019-03-19T03:37:39.561Z,100241.30
2019-03-19T03:40:10.934Z,100246.38
2019-03-19T03:42:42.558Z,100252.36
2019-03-19T03:45:11.406Z,100252.23
2019-03-19T03:47:39.642Z,100260.61
2019-03-19T03:50:10.410Z,100262.51
2019-03-19T03:52:38.660Z,100266.58
2019-03-19T03:55:09.478Z,100263.05
2019-03-19T03:57:37.927Z,100265.20
2019-03-19T04:00:22.291Z,100265.83
2019-03-19T04:02:50.556Z,100277.39
2019-03-19T04:05:19.243Z,100286.12
2019-03-19T04:07:47.478Z,100283.60
2019-03-19T04:10:18.903Z,100291.08
2019-03-19T04:12:47.206Z,100301.72
2019-03-19T04:15:17.317Z,100299.05
2019-03-19T04:17:45.486Z,100302.23
2019-03-19T04:20:14.769Z,100306.31
2019-03-19T04:22:42.994Z,100310.91
2019-03-19T04:25:11.638Z,100312.30
2019-03-19T04:27:40.898Z,100311.42
2019-03-19T04:30:17.503Z,100316.02
2019-03-19T04:32:45.794Z,100321.23
2019-03-19T04:35:14.035Z,100325.80
2019-03-19T04:37:42.263Z,100326.94
2019-03-19T04:40:11.970Z,100324.91
2019-03-19T04:42:40.270Z,100325.29
2019-03-19T04:45:10.549Z,100320.85
2019-03-19T04:47:39.001Z,100327.97
2019-03-19T04:50:16.935Z,100326.80
2019-03-19T04:52:45.458Z,100327.43
2019-03-19T04:55:15.507Z,100326.41
2019-03-19T04:57:43.735Z,100331.63
2019-03-19T05:00:19.448Z,100334.15
2019-03-19T05:02:47.677Z,100336.42
2019-03-19T05:05:15.913Z,100331.45
2019-03-19T05:07:44.368Z,100343.13
2019-03-19T05:10:15.785Z,100337.53
2019-03-19T05:12:44.039Z,100337.16
2019-03-19T05:15:12.324Z,100339.97
2019-03-19T05:17:40.548Z,100341.63
2019-03-19T05:20:11.695Z,100340.97
2019-03-19T05:22:39.924Z,100339.05
2019-03-19T05:25:09.017Z,100347.16
2019-03-19T05:27:37.970Z,100350.59
2019-03-19T05:30:19.232Z,100356.39
2019-03-19T05:32:47.476Z,100354.58
2019-03-19T05:35:15.777Z,100358.77
2019-03-19T05:37:44.024Z,100363.05
2019-03-19T05:40:14.434Z,100366.31
2019-03-19T05:42:42.669Z,100370.49
2019-03-19T05:45:12.244Z,100375.63
2019-03-19T05:47:40.970Z,100380.79
2019-03-19T05:50:17.737Z,100380.09
2019-03-19T05:52:48.310Z,100377.78
2019-03-19T05:55:15.919Z,100379.47
2019-03-19T05:57:49.555Z,100384.91
2019-03-19T06:00:17.210Z,100385.38
2019-03-19T06:02:45.444Z,100386.73
2019-03-19T06:05:13.758Z,100391.52
2019-03-19T06:07:41.991Z,100401.03
2019-03-19T06:10:13.635Z,100405.22
2019-03-19T06:12:41.858Z,100394.70
2019-03-19T06:15:12.265Z,100399.91
2019-03-19T06:17:40.497Z,100410.45
2019-03-19T06:20:19.587Z,100412.38
2019-03-19T06:22:47.807Z,100416.47
2019-03-19T06:25:16.308Z,100421.83
2019-03-19T06:27:44.582Z,100415.11
2019-03-19T06:30:15.290Z,100417.41
2019-03-19T06:32:43.750Z,100422.88
2019-03-19T06:35:12.829Z,100421.61
2019-03-19T06:37:41.053Z,100435.28
2019-03-19T06:40:14.927Z,100427.83
2019-03-19T06:42:43.164Z,100438.60
2019-03-19T06:45:16.441Z,100438.88
2019-03-19T06:47:44.837Z,100451.66
2019-03-19T06:50:15.581Z,100451.78
2019-03-19T06:52:44.038Z,100455.22
2019-03-19T06:55:13.636Z,100454.97
2019-03-19T06:57:41.862Z,100436.91
2019-03-19T07:00:13.198Z,100450.80
2019-03-19T07:02:41.435Z,100450.29
2019-03-19T07:05:10.066Z,100453.21
2019-03-19T07:07:38.307Z,100460.97
2019-03-19T07:10:09.840Z,100462.11
2019-03-19T07:12:38.304Z,100464.79
2019-03-19T07:15:12.243Z,100463.77
2019-03-19T07:17:40.480Z,100470.66
2019-03-19T07:20:12.019Z,100471.53
2019-03-19T07:22:40.254Z,100471.53
2019-03-19T07:25:09.450Z,100462.26
2019-03-19T07:27:37.690Z,100481.09
2019-03-19T07:30:20.389Z,100473.63
2019-03-19T07:32:48.853Z,100476.80
2019-03-19T07:35:17.080Z,100471.23
2019-03-19T07:37:45.318Z,100469.58
2019-03-19T07:40:17.517Z,100473.14
2019-03-19T07:42:45.761Z,100473.14
2019-03-19T07:45:18.029Z,100476.47
2019-03-19T07:47:46.271Z,100478.47
2019-03-19T07:50:16.045Z,100478.47
2019-03-19T07:52:44.293Z,100476.81
2019-03-19T07:55:12.957Z,100471.95
2019-03-19T07:57:41.188Z,100471.95
2019-03-19T08:00:16.665Z,100485.30
2019-03-19T08:02:45.307Z,100485.30
2019-03-19T08:05:13.935Z,100493.58
2019-03-19T08:07:42.251Z,100493.80
2019-03-19T08:10:15.960Z,100499.28
2019-03-19T08:12:44.203Z,100502.80
2019-03-19T08:15:17.383Z,100507.77
2019-03-19T08:17:45.893Z,100499.44
2019-03-19T08:20:17.936Z,100516.00
2019-03-19T08:22:46.450Z,100511.87
2019-03-19T08:25:17.810Z,100519.08
2019-03-19T08:27:46.062Z,100520.19
2019-03-19T08:30:24.778Z,100514.25
2019-03-19T08:32:53.330Z,100526.92
2019-03-19T08:35:21.865Z,100526.92
2019-03-19T08:37:50.346Z,100521.34
2019-03-19T08:40:19.341Z,100530.17
2019-03-19T08:42:47.577Z,100529.04
2019-03-19T08:45:19.197Z,100535.84
2019-03-19T08:47:47.657Z,100539.97
2019-03-19T08:50:17.133Z,100532.47
2019-03-19T08:52:45.595Z,100515.89
2019-03-19T08:55:14.131Z,100530.41
2019-03-19T08:57:42.600Z,100530.41
2019-03-19T09:00:26.238Z,100542.30
2019-03-19T09:02:54.728Z,100526.95
2019-03-19T09:05:22.951Z,100550.08
2019-03-19T09:07:51.191Z,100547.64
2019-03-19T09:10:20.394Z,100549.37
2019-03-19T09:12:49.150Z,100554.71
2019-03-19T09:15:22.302Z,100548.81
2019-03-19T09:17:50.531Z,100557.41
2019-03-19T09:20:19.265Z,100560.59
2019-03-19T09:22:47.507Z,100563.77
2019-03-19T09:25:15.971Z,100558.09
2019-03-19T09:27:44.213Z,100557.28
2019-03-19T09:30:15.613Z,100551.45
2019-03-19T09:32:44.071Z,100549.91
2019-03-19T09:35:12.533Z,100559.37
2019-03-19T09:37:44.831Z,100559.92
2019-03-19T09:40:18.681Z,100545.56
2019-03-19T09:42:47.133Z,100548.73
2019-03-19T09:45:16.635Z,100557.36
2019-03-19T09:47:45.096Z,100550.02
2019-03-19T09:50:16.267Z,100543.17
2019-03-19T09:52:44.490Z,100538.10
2019-03-19T09:55:13.768Z,100540.86
2019-03-19T09:57:42.217Z,100547.91
2019-03-19T10:00:18.056Z,100546.16
2019-03-19T10:02:46.511Z,100548.87
2019-03-19T10:05:14.976Z,100556.52
2019-03-19T10:07:43.211Z,100559.47
2019-03-19T10:10:16.204Z,100560.19
2019-03-19T10:12:44.664Z,100552.92
2019-03-19T10:15:13.265Z,100558.69
2019-03-19T10:17:41.506Z,100563.73
2019-03-19T10:20:17.559Z,100568.37
2019-03-19T10:22:44.822Z,100567.19
2019-03-19T10:25:16.446Z,100567.56
2019-03-19T10:27:44.918Z,100578.24
2019-03-19T10:30:17.506Z,100573.08
2019-03-19T10:32:45.812Z,100568.12
2019-03-19T10:35:14.212Z,100574.91
2019-03-19T10:37:42.452Z,100579.70
2019-03-19T10:40:13.088Z,100575.43
2019-03-19T10:42:41.553Z,100573.89
2019-03-19T10:45:12.792Z,100575.84
2019-03-19T10:47:41.263Z,100570.33
2019-03-19T10:50:13.130Z,100574.47
2019-03-19T10:52:41.370Z,100573.19
2019-03-19T10:55:09.667Z,100576.64
2019-03-19T10:57:38.132Z,100569.06
2019-03-19T11:00:15.379Z,100567.77
2019-03-19T11:02:43.848Z,100559.97
2019-03-19T11:05:13.853Z,100567.38
2019-03-19T11:07:42.488Z,100566.07
2019-03-19T11:10:15.383Z,100565.94
2019-03-19T11:12:44.194Z,100570.09
2019-03-19T11:15:26.305Z,100572.27
2019-03-19T11:17:54.544Z,100578.00
2019-03-19T11:20:22.782Z,100575.95
2019-03-19T11:22:51.021Z,100576.23
2019-03-19T11:25:21.350Z,100581.70
2019-03-19T11:27:49.829Z,100577.55
2019-03-19T11:30:26.727Z,100572.02
2019-03-19T11:32:55.260Z,100573.88
2019-03-19T11:35:23.502Z,100569.73
2019-03-19T11:37:51.960Z,100565.25
2019-03-19T11:40:20.831Z,100572.09
2019-03-19T11:42:49.637Z,100565.89
2019-03-19T11:45:21.263Z,100559.55
2019-03-19T11:47:49.808Z,100555.66
2019-03-19T11:50:20.439Z,100547.62
2019-03-19T11:52:48.761Z,100560.01
2019-03-19T11:55:17.569Z,100566.10
2019-03-19T11:57:45.800Z,100558.05
2019-03-19T12:00:26.724Z,100565.67
2019-03-19T12:02:54.973Z,100567.84
2019-03-19T12:05:23.200Z,100565.72
2019-03-19T12:07:51.690Z,100569.56
2019-03-19T12:10:20.157Z,100567.98
2019-03-19T12:12:48.388Z,100571.93
2019-03-19T12:15:16.631Z,100578.12
2019-03-19T12:17:45.082Z,100579.35
2019-03-19T12:20:14.167Z,100579.89
2019-03-19T12:22:42.618Z,100583.16
2019-03-19T12:25:12.201Z,100583.40
2019-03-19T12:27:40.718Z,100586.07
2019-03-19T12:30:21.742Z,100587.98
2019-03-19T12:32:42.080Z,100585.11
2019-03-19T12:35:11.456Z,100586.30
2019-03-19T12:37:39.683Z,100591.05
2019-03-19T12:40:18.072Z,100582.05
2019-03-19T12:42:46.375Z,100573.66
2019-03-19T12:45:18.619Z,100576.88
2019-03-19T12:47:47.085Z,100564.92
2019-03-19T12:50:20.079Z,100564.03
2019-03-19T12:52:48.526Z,100553.55
2019-03-19T12:55:17.052Z,100557.40
2019-03-19T12:57:45.281Z,100556.08
2019-03-19T13:00:21.149Z,100556.08
2019-03-19T13:02:49.445Z,100559.73
2019-03-19T13:05:17.909Z,100551.72
2019-03-19T13:07:46.139Z,100548.26
2019-03-19T13:10:23.642Z,100541.83
2019-03-19T13:12:51.872Z,100541.44
2019-03-19T13:15:20.579Z,100549.45
2019-03-19T13:17:48.812Z,100550.03
2019-03-19T13:20:24.512Z,100543.30
2019-03-19T13:22:52.739Z,100540.84
2019-03-19T13:25:27.067Z,100547.16
2019-03-19T13:27:55.305Z,100539.80
2019-03-19T13:30:28.643Z,100537.82
2019-03-19T13:32:57.098Z,100538.70
2019-03-19T13:35:25.322Z,100546.23
2019-03-19T13:37:53.822Z,100542.47
2019-03-19T13:40:22.374Z,100542.05
2019-03-19T13:42:50.641Z,100540.81
2019-03-19T13:45:21.220Z,100534.48
2019-03-19T13:47:49.707Z,100538.53
2019-03-19T13:50:18.779Z,100541.98
2019-03-19T13:52:47.015Z,100540.80
2019-03-19T13:55:22.831Z,100541.69
2019-03-19T13:57:51.073Z,100536.55
2019-03-19T14:00:19.771Z,100536.56
2019-03-19T14:02:48.229Z,100539.09
2019-03-19T14:05:19.665Z,100539.69
2019-03-19T14:07:48.211Z,100541.27
2019-03-19T14:10:17.707Z,100537.14
2019-03-19T14:12:46.028Z,100534.69
2019-03-19T14:15:16.285Z,100530.87
2019-03-19T14:17:44.522Z,100528.48
2019-03-19T14:20:15.327Z,100535.72
2019-03-19T14:22:45.127Z,100526.55
2019-03-19T14:25:14.672Z,100534.86
2019-03-19T14:27:43.437Z,100525.63
2019-03-19T14:30:23.587Z,100529.48
2019-03-19T14:32:52.059Z,100532.95
2019-03-19T14:35:20.519Z,100543.30
2019-03-19T14:37:48.775Z,100530.41
2019-03-19T14:40:18.579Z,100539.72
2019-03-19T14:42:46.890Z,100533.19
2019-03-19T14:45:16.327Z,100532.78
2019-03-19T14:47:44.573Z,100531.44
2019-03-19T14:50:18.270Z,100532.16
2019-03-19T14:52:46.931Z,100531.52
2019-03-19T14:55:15.165Z,100531.98
2019-03-19T14:57:43.657Z,100529.09
2019-03-19T15:00:16.657Z,100534.25
2019-03-19T15:02:44.911Z,100534.48
2019-03-19T15:05:14.276Z,100529.66
2019-03-19T15:07:42.823Z,100532.37
2019-03-19T15:10:17.229Z,100535.20
2019-03-19T15:12:45.714Z,100533.20
2019-03-19T15:15:19.008Z,100538.22
2019-03-19T15:17:47.240Z,100520.80
2019-03-19T15:20:23.292Z,100534.67
2019-03-19T15:22:51.520Z,100537.01
2019-03-19T15:25:20.100Z,100533.95
2019-03-19T15:27:48.382Z,100545.23
2019-03-19T15:30:17.569Z,100541.85
2019-03-19T15:32:46.343Z,100540.33
2019-03-19T15:35:14.687Z,100545.00
2019-03-19T15:37:42.891Z,100546.61
2019-03-19T15:40:17.748Z,100548.63
2019-03-19T15:42:46.242Z,100546.27
2019-03-19T15:45:16.121Z,100544.97
2019-03-19T15:47:44.627Z,100540.30
2019-03-19T15:50:14.622Z,100543.36
2019-03-19T15:52:43.126Z,100549.92
2019-03-19T15:55:13.119Z,100560.30
2019-03-19T15:57:41.547Z,100558.93
2019-03-19T16:00:14.665Z,100568.77
2019-03-19T16:02:42.906Z,100564.56
2019-03-19T16:05:12.510Z,100557.16
2019-03-19T16:07:40.744Z,100562.13
2019-03-19T16:10:11.225Z,100570.50
2019-03-19T16:12:39.750Z,100574.11
2019-03-19T16:15:11.389Z,100587.47
2019-03-19T16:17:39.631Z,100581.55
2019-03-19T16:20:11.287Z,100587.55
2019-03-19T16:22:39.768Z,100587.62
2019-03-19T16:25:08.761Z,100588.84
2019-03-19T16:27:37.237Z,100595.00
2019-03-19T16:30:11.354Z,100602.02
2019-03-19T16:32:39.837Z,100597.42
2019-03-19T16:35:09.458Z,100598.80
2019-03-19T16:37:38.236Z,100593.78
2019-03-19T16:40:22.177Z,100609.09
2019-03-19T16:42:50.661Z,100610.78
2019-03-19T16:45:18.893Z,100611.19
2019-03-19T16:47:47.130Z,100617.88
2019-03-19T16:50:21.943Z,100614.61
2019-03-19T16:52:50.187Z,100615.55
2019-03-19T16:55:20.429Z,100620.89
2019-03-19T16:57:48.736Z,100623.89
2019-03-19T17:00:23.137Z,100628.34
2019-03-19T17:02:51.618Z,100625.88
2019-03-19T17:05:19.845Z,100627.25
2019-03-19T17:07:48.386Z,100632.92
2019-03-19T17:10:27.412Z,100637.17
2019-03-19T17:12:55.721Z,100637.59
2019-03-19T17:15:24.233Z,100634.42
2019-03-19T17:17:52.646Z,100636.98
2019-03-19T17:20:21.100Z,100637.30
2019-03-19T17:22:49.569Z,100645.78
2019-03-19T17:25:24.662Z,100653.80
2019-03-19T17:27:52.898Z,100651.31
2019-03-19T17:30:34.378Z,100655.96
2019-03-19T17:33:02.842Z,100650.70
2019-03-19T17:35:31.300Z,100654.45
2019-03-19T17:37:59.773Z,100654.72
2019-03-19T17:40:28.222Z,100660.81
2019-03-19T17:42:56.467Z,100661.50
2019-03-19T17:45:24.917Z,100665.56
2019-03-19T17:47:53.161Z,100665.23
2019-03-19T17:50:24.842Z,100669.81
2019-03-19T17:52:54.427Z,100675.88
2019-03-19T17:55:22.747Z,100680.05
2019-03-19T17:57:50.984Z,100680.66
2019-03-19T18:00:24.456Z,100685.54
2019-03-19T18:02:52.928Z,100696.09
2019-03-19T18:05:21.451Z,100693.08
2019-03-19T18:07:49.917Z,100699.22
2019-03-19T18:10:18.219Z,100701.37
2019-03-19T18:12:46.526Z,100701.22
2019-03-19T18:15:18.899Z,100705.80
2019-03-19T18:17:47.370Z,100709.71
2019-03-19T18:20:17.599Z,100708.93
2019-03-19T18:22:46.138Z,100714.16
2019-03-19T18:25:16.376Z,100718.17
2019-03-19T18:27:44.850Z,100718.00
2019-03-19T18:30:18.041Z,100725.73
2019-03-19T18:32:46.510Z,100720.31
2019-03-19T18:35:15.037Z,100723.55
2019-03-19T18:37:43.503Z,100727.34
2019-03-19T18:40:17.867Z,100727.66
2019-03-19T18:42:46.090Z,100737.78
2019-03-19T18:45:18.874Z,100738.09
2019-03-19T18:47:47.113Z,100740.66
2019-03-19T18:50:17.461Z,100747.80
2019-03-19T18:52:45.702Z,100749.78
2019-03-19T18:55:14.239Z,100749.78
2019-03-19T18:57:42.794Z,100732.86
2019-03-19T19:00:16.780Z,100732.86
2019-03-19T19:02:50.060Z,100755.71
2019-03-19T19:05:16.034Z,100749.23
2019-03-19T19:07:44.582Z,100755.63
2019-03-19T19:10:16.403Z,100735.88
2019-03-19T19:12:44.860Z,100761.67
2019-03-19T19:15:17.887Z,100757.84
2019-03-19T19:17:46.339Z,100757.74
2019-03-19T19:20:15.269Z,100756.10
2019-03-19T19:22:43.795Z,100765.80
2019-03-19T19:25:16.326Z,100767.59
2019-03-19T19:27:44.848Z,100754.33
2019-03-19T19:30:24.478Z,100764.52
2019-03-19T19:33:00.836Z,100761.09
2019-03-19T19:35:22.682Z,100761.09
2019-03-19T19:37:51.135Z,100746.55
2019-03-19T19:40:19.600Z,100784.69
2019-03-19T19:42:48.056Z,100783.53
2019-03-19T19:45:17.471Z,100780.98
2019-03-19T19:47:45.705Z,100780.98
2019-03-19T19:50:18.635Z,100782.61
2019-03-19T19:52:46.858Z,100782.61
2019-03-19T19:55:15.718Z,100779.59
2019-03-19T19:57:44.498Z,100790.41
2019-03-19T20:00:16.713Z,100793.59
2019-03-19T20:02:45.291Z,100799.95
2019-03-19T20:05:13.817Z,100785.54
2019-03-19T20:07:42.069Z,100785.54
2019-03-19T20:10:17.745Z,100799.17
2019-03-19T20:12:46.278Z,100803.27
2019-03-19T20:15:14.577Z,100811.66
2019-03-19T20:17:43.143Z,100819.16
2019-03-19T20:20:19.197Z,100819.16
2019-03-19T20:22:47.682Z,100823.06
2019-03-19T20:25:15.930Z,100827.13
2019-03-19T20:27:44.444Z,100822.77
2019-03-19T20:30:23.264Z,100809.86
2019-03-19T20:32:51.512Z,100825.80
2019-03-19T20:35:19.739Z,100829.61
2019-03-19T20:37:48.307Z,100829.61
2019-03-19T20:40:17.213Z,100830.37
2019-03-19T20:42:46.090Z,100838.63
2019-03-19T20:45:16.838Z,100829.34
2019-03-19T20:47:45.083Z,100839.77
2019-03-19T20:50:16.322Z,100842.80
2019-03-19T20:52:44.563Z,100842.80
2019-03-19T20:55:12.789Z,100837.80
2019-03-19T20:57:41.253Z,100852.42
2019-03-19T21:00:12.401Z,100846.02
2019-03-19T21:02:40.644Z,100837.44
2019-03-19T21:05:09.173Z,100853.65
2019-03-19T21:07:37.419Z,100864.21
2019-03-19T21:10:14.366Z,100863.55
2019-03-19T21:12:42.599Z,100866.52
2019-03-19T21:15:21.466Z,100868.03
2019-03-19T21:17:49.712Z,100869.69
2019-03-19T21:20:17.941Z,100888.92
2019-03-19T21:22:46.410Z,100888.92
2019-03-19T21:25:14.874Z,100886.09
2019-03-19T21:27:43.122Z,100888.22
2019-03-19T21:30:20.330Z,100882.97
2019-03-19T21:32:48.631Z,100887.87
2019-03-19T21:35:21.877Z,100871.44
2019-03-19T21:37:50.256Z,100893.27
2019-03-19T21:40:18.551Z,100886.62
2019-03-19T21:42:47.580Z,100890.16
2019-03-19T21:45:18.120Z,100885.67
2019-03-19T21:47:46.674Z,100886.95
2019-03-19T21:50:19.554Z,100889.99
2019-03-19T21:52:47.782Z,100872.83
2019-03-19T21:55:16.029Z,100889.94
2019-03-19T21:57:44.255Z,100889.11
2019-03-19T22:00:20.090Z,100889.11
2019-03-19T22:02:48.550Z,100892.64
2019-03-19T22:05:17.025Z,100894.98
2019-03-19T22:07:45.344Z,100896.86
2019-03-19T22:10:21.136Z,100893.91
2019-03-19T22:12:49.881Z,100890.33
2019-03-19T22:15:23.900Z,100895.27
2019-03-19T22:17:52.209Z,100894.98
2019-03-19T22:20:20.683Z,100893.56
2019-03-19T22:22:49.175Z,100897.09
2019-03-19T22:25:17.643Z,100905.09
2019-03-19T22:27:46.134Z,100904.08
2019-03-19T22:30:21.992Z,100902.43
2019-03-19T22:32:50.448Z,100906.47
2019-03-19T22:35:18.684Z,100900.05
2019-03-19T22:37:47.313Z,100903.05
2019-03-19T22:40:16.306Z,100905.70
2019-03-19T22:42:44.523Z,100907.06
2019-03-19T22:45:17.966Z,100914.91
2019-03-19T22:47:46.511Z,100917.91
2019-03-19T22:50:16.667Z,100920.75
2019-03-19T22:52:44.915Z,100924.52
2019-03-19T22:55:13.886Z,100927.22
2019-03-19T22:57:42.416Z,100933.34
2019-03-19T23:00:18.879Z,100934.31
2019-03-19T23:02:47.418Z,100941.41
2019-03-19T23:05:15.727Z,100945.75
2019-03-19T23:07:43.961Z,100942.05
2019-03-19T23:10:12.434Z,100950.27
2019-03-19T23:12:40.894Z,100954.59
2019-03-19T23:15:11.335Z,100950.12
2019-03-19T23:17:39.589Z,100954.86
2019-03-19T23:20:10.120Z,100956.09
2019-03-19T23:22:38.435Z,100958.70
2019-03-19T23:25:06.993Z,100965.95
2019-03-19T23:27:35.235Z,100965.34
2019-03-19T23:30:05.163Z,100970.01
2019-03-19T23:32:33.382Z,100971.66
2019-03-19T23:35:01.611Z,100965.74
2019-03-19T23:37:29.865Z,100967.39
2019-03-19T23:39:58.330Z,100968.13
2019-03-19T23:42:26.579Z,100971.48
2019-03-19T23:44:55.033Z,100976.19
2019-03-19T23:47:23.510Z,100967.67
2019-03-19T23:49:51.746Z,100972.91
2019-03-19T23:52:19.993Z,100974.92
2019-03-19T23:54:48.463Z,100974.28
2019-03-19T23:57:16.705Z,100973.08
2019-03-19T23:59:44.938Z,100973.52
